CYED/YED METAR and TAF weather

Enter ICAO airport designator
Station Type Date Time Source
CYED METAR 2020/03/28 20:00 UTC NOAA

CYED 282000Z AUTO 05006KT 9SM FEW012 FEW077 SCT090 SCT099 M11/M14 A2990 RMK SLP162


Station Type Date Time Source
CYED Decoded METAR 2020/03/28 20:00 UTC NOAA

Edmonton Namao Alta., Canada (CYED) 53-40N 113-28W 688M
Mar 28, 2020 - 04:00 PM EDT / 2020.03.28 2000 UTC
Wind: from the NE (050 degrees) at 7 MPH (6 KT):0
Visibility: 9 mile(s):0
Sky conditions: partly cloudy
Temperature: 12 F (-11 C)
Windchill: 1 F (-17 C):1
Dew Point: 6 F (-14 C)
Relative Humidity: 78%
Pressure (altimeter): 29.9 in. Hg (1012 hPa)
ob: CYED 282000Z AUTO 05006KT 9SM FEW012 FEW077 SCT090 SCT099 M11/M14 A2990 RMK SLP162
cycle: 20

Station Type Date Time Source
CYED TAF 2020/03/14 00:00 UTC NOAA

TAF
AMD CYED 140557Z 1400/1412 FCST CNCLD DUE END OF FLYING PROGRAM
RMK NXT FCST WILL BE ISSUED AT 061215Z

Example: see airport list